Time;durP1;ratioP1;P1;durP2;ratioP2;P2;SDS_P1;SDS_P2;PMS_P1;PMS_P2;Temp;Humidity;BMP_temperature;BMP_pressure;BME280_temperature;BME280_humidity;BME280_pressure;Samples;Min_cycle;Max_cycle;Signal;HPM_P1;HPM_P2
2023/07/29 00:02:12;;;;;;;;;;;17.20;67.30;;;;;;4145609;28;19928;-85
2023/07/29 00:04:31;;;;;;;;;;;17.20;68.20;;;;;;4141781;28;19920;-85
2023/07/29 00:06:50;;;;;;;;;;;17.20;68.00;;;;;;4143968;28;19925;-86
2023/07/29 00:09:10;;;;;;;;;;;17.20;69.20;;;;;;4143118;28;19974;-84
2023/07/29 00:11:30;;;;;;;;;;;17.20;68.10;;;;;;4145420;28;19960;-85
2023/07/29 00:13:50;;;;;;;;;;;17.20;68.70;;;;;;4143986;28;19963;-84
2023/07/29 00:16:09;;;;;;;;;;;17.20;68.90;;;;;;4145290;28;19971;-85
2023/07/29 00:18:28;;;;;;;;;;;17.20;69.20;;;;;;4142515;28;19932;-85
2023/07/29 00:20:48;;;;;;;;;;;17.20;69.30;;;;;;4141711;28;19928;-84
2023/07/29 00:22:54;;;;;;;;;;;17.30;69.80;;;;;;4120006;28;20214;-85
2023/07/29 00:25:15;;;;;;;;;;;17.20;69.20;;;;;;4142700;28;19964;-85
2023/07/29 00:27:36;;;;;;;;;;;17.20;69.70;;;;;;4144215;28;19982;-85
2023/07/29 00:29:56;;;;;;;;;;;17.20;70.20;;;;;;4145602;28;20340;-85
2023/07/29 00:32:17;;;;;;;;;;;17.30;69.60;;;;;;4143914;28;19918;-86
2023/07/29 00:34:37;;;;;;;;;;;17.30;69.30;;;;;;4145103;28;19917;-85
2023/07/29 00:36:58;;;;;;;;;;;17.30;69.70;;;;;;4142729;28;19932;-85
2023/07/29 00:39:19;;;;;;;;;;;17.30;70.10;;;;;;4143556;28;19951;-85
2023/07/29 00:41:39;;;;;;;;;;;17.30;69.80;;;;;;4144858;28;19999;-85
2023/07/29 00:44:00;;;;;;;;;;;17.30;69.60;;;;;;4143847;28;19959;-85
2023/07/29 00:46:00;;;;;;;;;;;17.40;69.40;;;;;;4138302;28;20323;-85
2023/07/29 00:48:06;;;;;;;;;;;17.30;69.30;;;;;;4129127;28;20438;-85
2023/07/29 00:50:09;;;;;;;;;;;17.40;71.00;;;;;;4143024;28;20063;-86
2023/07/29 00:52:12;;;;;;;;;;;17.30;71.00;;;;;;4143815;28;19913;-85
2023/07/29 00:54:13;;;;;;;;;;;17.30;70.90;;;;;;4125847;28;19918;-84
2023/07/29 00:56:16;;;;;;;;;;;17.40;70.80;;;;;;4144147;28;20599;-85
2023/07/29 00:58:17;;;;;;;;;;;17.40;70.60;;;;;;4145593;28;19913;-85
2023/07/29 01:00:18;;;;;;;;;;;17.40;70.80;;;;;;4144691;28;19920;-85
2023/07/29 01:02:27;;;;;;;;;;;17.40;70.90;;;;;;4146339;28;19917;-85
2023/07/29 01:04:27;;;;;;;;;;;17.40;71.50;;;;;;4144016;28;19923;-85
2023/07/29 01:06:48;;;;;;;;;;;17.50;71.60;;;;;;4143415;28;20388;-85
2023/07/29 01:09:02;;;;;;;;;;;17.40;70.90;;;;;;4143636;28;19917;-85
2023/07/29 01:11:29;;;;;;;;;;;17.40;70.50;;;;;;4144621;28;19956;-85
2023/07/29 01:14:03;;;;;;;;;;;17.40;70.60;;;;;;4144533;28;19917;-85
2023/07/29 01:16:27;;;;;;;;;;;17.40;70.40;;;;;;4141751;28;19924;-84
2023/07/29 01:18:49;;;;;;;;;;;17.40;70.40;;;;;;4144188;28;20406;-85
2023/07/29 01:21:11;;;;;;;;;;;17.40;70.60;;;;;;4143648;28;20008;-85
2023/07/29 01:23:32;;;;;;;;;;;17.50;70.50;;;;;;4142677;28;19964;-85
2023/07/29 01:25:52;;;;;;;;;;;17.50;70.30;;;;;;4142276;28;19922;-85
2023/07/29 01:28:13;;;;;;;;;;;17.50;70.40;;;;;;4145116;28;19917;-86
2023/07/29 01:30:38;;;;;;;;;;;17.50;70.30;;;;;;4143026;28;19914;-84
2023/07/29 01:33:03;;;;;;;;;;;17.60;70.50;;;;;;4143694;28;20426;-85
2023/07/29 01:35:26;;;;;;;;;;;17.60;70.10;;;;;;4142159;28;19995;-84
2023/07/29 01:37:49;;;;;;;;;;;17.60;70.40;;;;;;4141858;28;19945;-85
2023/07/29 01:40:10;;;;;;;;;;;17.50;68.90;;;;;;4139371;28;19976;-84
2023/07/29 01:42:31;;;;;;;;;;;17.60;69.50;;;;;;4141547;28;20380;-85
2023/07/29 01:44:52;;;;;;;;;;;17.60;69.30;;;;;;4141824;28;19922;-85
2023/07/29 01:47:12;;;;;;;;;;;17.60;69.40;;;;;;4141930;28;19941;-85
2023/07/29 01:49:33;;;;;;;;;;;17.60;69.50;;;;;;4144126;28;19913;-84
2023/07/29 01:51:53;;;;;;;;;;;17.60;69.70;;;;;;4140529;28;19924;-85
2023/07/29 01:54:14;;;;;;;;;;;17.60;69.60;;;;;;4141267;28;19920;-85
2023/07/29 01:56:34;;;;;;;;;;;17.60;69.50;;;;;;4141629;28;20008;-84
2023/07/29 01:58:55;;;;;;;;;;;17.60;69.90;;;;;;4141842;28;19960;-85
2023/07/29 02:01:15;;;;;;;;;;;17.60;69.80;;;;;;4143939;28;19953;-85
2023/07/29 02:03:36;;;;;;;;;;;17.60;69.80;;;;;;4138539;28;19967;-85
2023/07/29 02:05:56;;;;;;;;;;;17.60;69.90;;;;;;4142310;28;20400;-85
2023/07/29 02:08:17;;;;;;;;;;;17.60;69.90;;;;;;4139949;28;19924;-85
2023/07/29 02:10:38;;;;;;;;;;;17.50;69.70;;;;;;4141094;28;19924;-85
2023/07/29 02:12:58;;;;;;;;;;;17.60;69.80;;;;;;4143180;28;19910;-85
2023/07/29 02:15:19;;;;;;;;;;;17.50;69.70;;;;;;4140851;28;19948;-85
2023/07/29 02:17:41;;;;;;;;;;;17.60;69.70;;;;;;4138617;28;19913;-85
2023/07/29 02:20:03;;;;;;;;;;;17.50;69.60;;;;;;4139473;28;19913;-85
2023/07/29 02:22:24;;;;;;;;;;;17.50;69.80;;;;;;4140664;28;19969;-85
2023/07/29 02:24:44;;;;;;;;;;;17.50;69.90;;;;;;4143626;28;19914;-85
2023/07/29 02:27:05;;;;;;;;;;;17.50;69.50;;;;;;4142915;28;19953;-85
2023/07/29 02:29:26;;;;;;;;;;;17.50;69.60;;;;;;4143161;28;19925;-85
2023/07/29 02:31:47;;;;;;;;;;;17.50;69.60;;;;;;4139382;28;19913;-85
2023/07/29 02:34:08;;;;;;;;;;;17.50;70.00;;;;;;4141176;28;19918;-85
2023/07/29 02:36:27;;;;;;;;;;;17.50;69.90;;;;;;4142888;28;19964;-85
2023/07/29 02:38:46;;;;;;;;;;;17.50;70.00;;;;;;4144685;28;19917;-85
2023/07/29 02:41:06;;;;;;;;;;;17.40;69.80;;;;;;4153746;28;19936;-85
2023/07/29 02:43:06;;;;;;;;;;;17.50;70.20;;;;;;4164398;28;19909;-85
2023/07/29 02:45:09;;;;;;;;;;;17.40;69.90;;;;;;4157285;28;19929;-85
2023/07/29 02:47:10;;;;;;;;;;;17.40;69.90;;;;;;4150805;28;20049;-85
2023/07/29 02:49:10;;;;;;;;;;;17.40;69.70;;;;;;4146993;28;19913;-85
2023/07/29 02:51:11;;;;;;;;;;;17.50;69.90;;;;;;4144428;28;19917;-84
2023/07/29 02:53:11;;;;;;;;;;;17.40;69.70;;;;;;4143448;28;19920;-85
2023/07/29 02:55:12;;;;;;;;;;;17.50;69.80;;;;;;4146114;28;19944;-85
2023/07/29 02:57:13;;;;;;;;;;;17.50;69.80;;;;;;4146182;28;19909;-85
2023/07/29 02:59:14;;;;;;;;;;;17.40;69.80;;;;;;4147520;28;19945;-85
2023/07/29 03:01:14;;;;;;;;;;;17.50;69.40;;;;;;4147666;28;19925;-86
2023/07/29 03:03:15;;;;;;;;;;;17.40;69.50;;;;;;4158603;28;19914;-85
2023/07/29 03:05:16;;;;;;;;;;;17.40;69.40;;;;;;4138975;28;19910;-85
2023/07/29 03:07:17;;;;;;;;;;;17.40;69.60;;;;;;4146980;28;20379;-85
2023/07/29 03:09:17;;;;;;;;;;;17.40;70.10;;;;;;4127228;28;20005;-85
2023/07/29 03:11:18;;;;;;;;;;;17.40;70.20;;;;;;4157909;28;19920;-86
2023/07/29 03:13:18;;;;;;;;;;;17.40;70.10;;;;;;4145055;28;21595;-85
2023/07/29 03:15:22;;;;;;;;;;;17.40;70.80;;;;;;4148123;28;19917;-85
2023/07/29 03:17:23;;;;;;;;;;;17.40;70.00;;;;;;4146444;28;20469;-85
2023/07/29 03:19:23;;;;;;;;;;;17.40;71.00;;;;;;4146505;28;19948;-84
2023/07/29 03:21:24;;;;;;;;;;;17.40;70.80;;;;;;4147534;28;19909;-85
2023/07/29 03:23:27;;;;;;;;;;;17.40;71.10;;;;;;4144127;28;19917;-85
2023/07/29 03:25:28;;;;;;;;;;;17.40;70.70;;;;;;4141797;28;19913;-85
2023/07/29 03:27:29;;;;;;;;;;;17.50;70.60;;;;;;4142452;28;19913;-84
2023/07/29 03:29:30;;;;;;;;;;;17.40;70.40;;;;;;4142277;28;19929;-85
2023/07/29 03:31:31;;;;;;;;;;;17.40;70.40;;;;;;4145828;28;19917;-85
2023/07/29 03:33:32;;;;;;;;;;;17.40;70.40;;;;;;4124089;28;20241;-84
2023/07/29 03:35:32;;;;;;;;;;;17.50;70.60;;;;;;4145110;28;19923;-85
2023/07/29 03:37:33;;;;;;;;;;;17.40;70.40;;;;;;4146501;28;19913;-85
2023/07/29 03:39:34;;;;;;;;;;;17.40;71.10;;;;;;4143381;28;19921;-85
2023/07/29 03:41:34;;;;;;;;;;;17.50;70.40;;;;;;4145232;28;20367;-85
2023/07/29 03:43:35;;;;;;;;;;;17.40;70.30;;;;;;4140341;28;19913;-85
2023/07/29 03:45:35;;;;;;;;;;;17.40;70.40;;;;;;4147000;28;19917;-85
2023/07/29 03:47:36;;;;;;;;;;;17.50;70.60;;;;;;4146361;28;20349;-85
2023/07/29 03:49:36;;;;;;;;;;;17.40;71.30;;;;;;4144309;28;19913;-85
2023/07/29 03:51:37;;;;;;;;;;;17.40;70.60;;;;;;4146197;28;20031;-84
2023/07/29 03:53:37;;;;;;;;;;;17.50;70.60;;;;;;4144115;28;19921;-86
2023/07/29 03:55:38;;;;;;;;;;;17.40;70.30;;;;;;4141018;28;19949;-84
2023/07/29 03:57:39;;;;;;;;;;;17.40;70.40;;;;;;4143570;28;19917;-85
2023/07/29 03:59:41;;;;;;;;;;;17.50;70.40;;;;;;4145680;28;20475;-85
2023/07/29 04:01:42;;;;;;;;;;;17.40;70.30;;;;;;4144245;28;19914;-85
2023/07/29 04:03:42;;;;;;;;;;;17.50;70.30;;;;;;4144570;28;19918;-85
2023/07/29 04:05:43;;;;;;;;;;;17.40;70.20;;;;;;4145775;28;19909;-85
2023/07/29 04:07:44;;;;;;;;;;;17.40;70.30;;;;;;4143912;28;19960;-85
2023/07/29 04:09:47;;;;;;;;;;;17.40;70.30;;;;;;4143521;28;20008;-85
2023/07/29 04:11:47;;;;;;;;;;;17.40;70.50;;;;;;4148484;28;19916;-85
2023/07/29 04:13:48;;;;;;;;;;;17.40;70.50;;;;;;4145374;28;19913;-85
2023/07/29 04:15:48;;;;;;;;;;;17.40;70.50;;;;;;4144045;28;19909;-85
2023/07/29 04:17:49;;;;;;;;;;;17.40;70.50;;;;;;4143502;28;19930;-85
2023/07/29 04:19:49;;;;;;;;;;;17.40;70.30;;;;;;4143550;28;19917;-86
2023/07/29 04:21:50;;;;;;;;;;;17.40;70.10;;;;;;4143509;28;19936;-85
2023/07/29 04:23:51;;;;;;;;;;;17.40;70.00;;;;;;4143308;28;19925;-85
2023/07/29 04:25:51;;;;;;;;;;;17.40;70.20;;;;;;4143981;28;19909;-85
2023/07/29 04:27:52;;;;;;;;;;;17.40;70.20;;;;;;4142367;28;19913;-85
2023/07/29 04:29:53;;;;;;;;;;;17.40;70.20;;;;;;4142073;28;19957;-85
2023/07/29 04:31:54;;;;;;;;;;;17.40;70.30;;;;;;4143509;28;19913;-86
2023/07/29 04:33:55;;;;;;;;;;;17.50;70.50;;;;;;4144562;28;19917;-85
2023/07/29 04:35:55;;;;;;;;;;;17.50;70.60;;;;;;4142165;28;19924;-85
2023/07/29 04:37:57;;;;;;;;;;;17.50;70.60;;;;;;4144475;28;20360;-85
2023/07/29 04:39:59;;;;;;;;;;;17.50;70.60;;;;;;4143295;28;20592;-85
2023/07/29 04:42:19;;;;;;;;;;;17.50;70.60;;;;;;4144687;28;20511;-85
2023/07/29 04:44:20;;;;;;;;;;;17.50;70.70;;;;;;4142791;28;20005;-87
2023/07/29 04:46:40;;;;;;;;;;;17.50;70.60;;;;;;4142403;28;20404;-85
2023/07/29 04:49:02;;;;;;;;;;;17.50;70.60;;;;;;4143413;28;20379;-85
2023/07/29 04:51:02;;;;;;;;;;;17.50;70.70;;;;;;4143833;28;19913;-85
2023/07/29 04:53:23;;;;;;;;;;;17.50;70.60;;;;;;4144522;28;20518;-85
2023/07/29 04:55:43;;;;;;;;;;;17.60;70.80;;;;;;4142723;28;20435;-85
2023/07/29 04:57:45;;;;;;;;;;;17.60;70.70;;;;;;4143483;28;19910;-84
2023/07/29 05:00:06;;;;;;;;;;;17.60;70.50;;;;;;4145169;28;19933;-85
2023/07/29 05:02:27;;;;;;;;;;;17.60;70.50;;;;;;4143720;28;20495;-85
2023/07/29 05:04:47;;;;;;;;;;;17.60;70.60;;;;;;4143402;28;19917;-84
2023/07/29 05:07:07;;;;;;;;;;;17.60;70.70;;;;;;4143101;28;19940;-85
2023/07/29 05:09:28;;;;;;;;;;;17.50;70.50;;;;;;4144008;28;19909;-85
2023/07/29 05:11:49;;;;;;;;;;;17.60;70.30;;;;;;4141563;28;20390;-84
2023/07/29 05:14:09;;;;;;;;;;;17.60;70.10;;;;;;4143958;28;19918;-85
2023/07/29 05:16:30;;;;;;;;;;;17.60;70.70;;;;;;4144789;28;20375;-84
2023/07/29 05:18:50;;;;;;;;;;;17.60;70.50;;;;;;4145878;28;20413;-85
2023/07/29 05:21:14;;;;;;;;;;;17.60;70.50;;;;;;4157043;28;20405;-85
2023/07/29 05:23:34;;;;;;;;;;;17.60;70.10;;;;;;4144594;28;19920;-85
2023/07/29 05:25:55;;;;;;;;;;;17.60;69.80;;;;;;4145172;28;19917;-84
2023/07/29 05:28:15;;;;;;;;;;;17.60;71.20;;;;;;4141205;28;20456;-84
2023/07/29 05:30:37;;;;;;;;;;;17.60;70.90;;;;;;4145571;28;20371;-84
2023/07/29 05:32:57;;;;;;;;;;;17.60;70.30;;;;;;4144556;28;20491;-84
2023/07/29 05:35:18;;;;;;;;;;;17.50;70.00;;;;;;4148177;28;19920;-84
2023/07/29 05:37:41;;;;;;;;;;;17.60;69.90;;;;;;4164073;28;19948;-84
2023/07/29 05:40:02;;;;;;;;;;;17.50;69.40;;;;;;4151560;28;20359;-84
2023/07/29 05:42:23;;;;;;;;;;;17.50;69.20;;;;;;4144292;28;20341;-83
2023/07/29 05:44:43;;;;;;;;;;;17.50;70.30;;;;;;4144566;28;20341;-83
2023/07/29 05:47:04;;;;;;;;;;;17.50;69.90;;;;;;4141842;28;19955;-83
2023/07/29 05:49:24;;;;;;;;;;;17.50;69.70;;;;;;4144974;28;19953;-83
2023/07/29 05:51:45;;;;;;;;;;;17.50;69.80;;;;;;4139255;28;20284;-83
2023/07/29 05:54:05;;;;;;;;;;;17.50;70.10;;;;;;4146680;28;19921;-83
2023/07/29 05:56:26;;;;;;;;;;;17.60;70.10;;;;;;4151081;28;19917;-83
2023/07/29 05:58:46;;;;;;;;;;;17.60;70.40;;;;;;4148616;28;19913;-83
2023/07/29 06:01:07;;;;;;;;;;;17.60;70.70;;;;;;4148647;28;19914;-83
2023/07/29 06:03:27;;;;;;;;;;;17.60;70.80;;;;;;4149697;28;19971;-82
2023/07/29 06:05:48;;;;;;;;;;;17.70;71.10;;;;;;4143277;28;20337;-83
2023/07/29 06:08:09;;;;;;;;;;;17.70;71.00;;;;;;4143368;28;20264;-83
2023/07/29 06:10:29;;;;;;;;;;;17.70;71.10;;;;;;4140336;28;19913;-83
2023/07/29 06:12:50;;;;;;;;;;;17.70;71.10;;;;;;4146194;28;19917;-83
2023/07/29 06:15:12;;;;;;;;;;;17.70;71.20;;;;;;4145906;28;19914;-82
2023/07/29 06:17:32;;;;;;;;;;;17.90;71.50;;;;;;4142048;28;19951;-83
2023/07/29 06:19:53;;;;;;;;;;;17.80;71.50;;;;;;4144317;28;20408;-83
2023/07/29 06:22:13;;;;;;;;;;;17.90;71.60;;;;;;4143244;28;19917;-83
2023/07/29 06:24:33;;;;;;;;;;;17.90;71.70;;;;;;4145332;28;19929;-83
2023/07/29 06:26:54;;;;;;;;;;;18.00;71.90;;;;;;4145159;28;20260;-82
2023/07/29 06:29:15;;;;;;;;;;;18.00;72.00;;;;;;4145230;28;20003;-83
2023/07/29 06:31:35;;;;;;;;;;;18.00;71.80;;;;;;4142469;28;19925;-83
2023/07/29 06:33:56;;;;;;;;;;;18.10;72.70;;;;;;4143433;28;19959;-83
2023/07/29 06:36:16;;;;;;;;;;;18.10;72.50;;;;;;4142170;28;19913;-83
2023/07/29 06:38:38;;;;;;;;;;;18.20;72.20;;;;;;4141490;28;19918;-83
2023/07/29 06:40:58;;;;;;;;;;;18.30;72.10;;;;;;4142590;28;19996;-83
2023/07/29 06:43:17;;;;;;;;;;;18.40;72.20;;;;;;4142149;28;19972;-83
2023/07/29 06:45:37;;;;;;;;;;;18.50;73.20;;;;;;4143782;28;19920;-83
2023/07/29 06:47:56;;;;;;;;;;;18.50;73.00;;;;;;4141746;28;19923;-83
2023/07/29 06:50:15;;;;;;;;;;;18.60;73.00;;;;;;4144573;28;19944;-83
2023/07/29 06:52:36;;;;;;;;;;;18.70;73.50;;;;;;4144237;28;19924;-84
2023/07/29 06:54:55;;;;;;;;;;;18.70;74.00;;;;;;4146031;28;19920;-83
2023/07/29 06:57:14;;;;;;;;;;;18.80;73.90;;;;;;4140157;28;20343;-83
2023/07/29 06:59:34;;;;;;;;;;;18.90;74.10;;;;;;4144253;28;19933;-83
2023/07/29 07:01:53;;;;;;;;;;;19.00;73.80;;;;;;4142450;28;19972;-83
2023/07/29 07:04:12;;;;;;;;;;;19.10;74.50;;;;;;4144097;28;20348;-84
2023/07/29 07:06:31;;;;;;;;;;;19.10;74.00;;;;;;4143574;28;19968;-84
2023/07/29 07:08:51;;;;;;;;;;;19.20;74.30;;;;;;4141423;28;20475;-84
2023/07/29 07:11:10;;;;;;;;;;;19.40;73.40;;;;;;4144550;28;20033;-84
2023/07/29 07:13:30;;;;;;;;;;;19.40;73.50;;;;;;4143309;28;19952;-85
2023/07/29 07:15:49;;;;;;;;;;;19.50;73.30;;;;;;4143967;28;19992;-85
2023/07/29 07:18:09;;;;;;;;;;;19.60;73.10;;;;;;4144548;28;19968;-85
2023/07/29 07:20:28;;;;;;;;;;;19.70;72.90;;;;;;4142693;28;19916;-83
2023/07/29 07:22:48;;;;;;;;;;;19.80;73.40;;;;;;4147771;28;19967;-83
2023/07/29 07:25:07;;;;;;;;;;;19.90;72.70;;;;;;4145654;28;19964;-84
2023/07/29 07:27:26;;;;;;;;;;;20.00;73.40;;;;;;4146751;28;19917;-85
2023/07/29 07:29:46;;;;;;;;;;;20.10;73.20;;;;;;4146227;28;19921;-85
2023/07/29 07:32:05;;;;;;;;;;;20.10;72.40;;;;;;4157900;28;20410;-85
2023/07/29 07:34:24;;;;;;;;;;;20.20;72.10;;;;;;4145580;28;19980;-85
2023/07/29 07:36:43;;;;;;;;;;;20.20;71.70;;;;;;4146146;28;19968;-85
2023/07/29 07:39:02;;;;;;;;;;;20.30;71.90;;;;;;4143714;28;19928;-85
2023/07/29 07:41:22;;;;;;;;;;;20.30;71.40;;;;;;4142799;28;19924;-85
2023/07/29 07:43:41;;;;;;;;;;;20.40;71.20;;;;;;4145251;28;20318;-85
2023/07/29 07:46:01;;;;;;;;;;;20.40;71.10;;;;;;4146026;28;19920;-86
2023/07/29 07:48:20;;;;;;;;;;;20.50;71.20;;;;;;4145806;28;19932;-85
2023/07/29 07:50:39;;;;;;;;;;;20.50;71.00;;;;;;4145930;28;20064;-85
2023/07/29 07:52:59;;;;;;;;;;;20.60;70.80;;;;;;4146713;28;19924;-86
2023/07/29 07:55:18;;;;;;;;;;;20.60;70.60;;;;;;4145729;28;19941;-85
2023/07/29 07:57:37;;;;;;;;;;;20.60;70.40;;;;;;4144620;28;19995;-86
2023/07/29 07:59:56;;;;;;;;;;;20.70;70.20;;;;;;4147940;28;19932;-86
2023/07/29 08:02:15;;;;;;;;;;;20.70;70.10;;;;;;4146833;28;19928;-87
2023/07/29 08:04:35;;;;;;;;;;;20.80;70.70;;;;;;4145667;28;20394;-84
2023/07/29 08:06:54;;;;;;;;;;;20.80;70.00;;;;;;4146403;28;19921;-85
2023/07/29 08:09:14;;;;;;;;;;;20.80;69.60;;;;;;4143698;28;19924;-85
2023/07/29 08:11:34;;;;;;;;;;;20.80;69.50;;;;;;4144589;28;19920;-85
2023/07/29 08:13:53;;;;;;;;;;;20.90;69.50;;;;;;4144780;28;20027;-85
2023/07/29 08:16:15;;;;;;;;;;;20.90;69.70;;;;;;4145746;28;19964;-86
2023/07/29 08:18:34;;;;;;;;;;;20.90;69.40;;;;;;4157423;28;20064;-85
2023/07/29 08:20:55;;;;;;;;;;;21.00;69.40;;;;;;4147681;28;20329;-85
2023/07/29 08:23:14;;;;;;;;;;;21.00;69.30;;;;;;4143720;28;19964;-85
2023/07/29 08:25:36;;;;;;;;;;;21.00;69.10;;;;;;4141833;28;19920;-85
2023/07/29 08:27:55;;;;;;;;;;;21.00;68.80;;;;;;4156031;28;19958;-86
2023/07/29 08:30:15;;;;;;;;;;;21.10;68.50;;;;;;4142768;28;19924;-85
2023/07/29 08:32:34;;;;;;;;;;;21.10;69.30;;;;;;4146761;28;19920;-86
2023/07/29 08:34:53;;;;;;;;;;;21.10;69.10;;;;;;4153927;28;20001;-85
2023/07/29 08:37:13;;;;;;;;;;;21.20;68.20;;;;;;4155992;28;19916;-86
2023/07/29 08:39:35;;;;;;;;;;;21.20;67.80;;;;;;4144590;28;21330;-86
2023/07/29 08:42:07;;;;;;;;;;;21.20;67.80;;;;;;4146800;28;19928;-86
2023/07/29 08:44:29;;;;;;;;;;;21.20;67.70;;;;;;4145495;28;19967;-85
2023/07/29 08:46:53;;;;;;;;;;;21.20;67.60;;;;;;4141590;28;19927;-85
2023/07/29 08:49:18;;;;;;;;;;;21.20;67.50;;;;;;4144007;28;19956;-85
2023/07/29 08:51:38;;;;;;;;;;;21.20;67.50;;;;;;4144083;28;19959;-86
2023/07/29 08:53:58;;;;;;;;;;;21.30;67.60;;;;;;4140172;28;19920;-85
2023/07/29 08:56:18;;;;;;;;;;;21.30;67.70;;;;;;4144692;28;19939;-85
2023/07/29 08:58:37;;;;;;;;;;;21.30;67.70;;;;;;4144307;28;19988;-86
2023/07/29 09:00:56;;;;;;;;;;;21.30;68.30;;;;;;4143354;28;19920;-85
2023/07/29 09:03:15;;;;;;;;;;;21.40;67.60;;;;;;4144578;28;19925;-86
2023/07/29 09:05:35;;;;;;;;;;;21.40;67.30;;;;;;4143842;28;20060;-85
2023/07/29 09:07:54;;;;;;;;;;;21.40;66.70;;;;;;4143120;28;20746;-86
2023/07/29 09:10:14;;;;;;;;;;;21.40;66.70;;;;;;4142159;28;20386;-86
2023/07/29 09:12:33;;;;;;;;;;;21.40;66.40;;;;;;4140985;28;19923;-86
2023/07/29 09:14:54;;;;;;;;;;;21.30;66.20;;;;;;4141071;28;19929;-86
2023/07/29 09:17:13;;;;;;;;;;;21.50;66.50;;;;;;4143949;28;19944;-86
2023/07/29 09:19:33;;;;;;;;;;;21.40;67.10;;;;;;4142226;28;20024;-85
2023/07/29 09:21:52;;;;;;;;;;;21.50;66.40;;;;;;4143359;28;20158;-85
2023/07/29 09:24:15;;;;;;;;;;;21.50;66.70;;;;;;4140308;28;19923;-85
2023/07/29 09:26:34;;;;;;;;;;;21.50;67.00;;;;;;4143188;28;20406;-86
2023/07/29 09:28:57;;;;;;;;;;;21.60;67.20;;;;;;4143248;28;19936;-86
2023/07/29 09:31:22;;;;;;;;;;;21.60;67.20;;;;;;4144406;28;20334;-84
2023/07/29 09:33:42;;;;;;;;;;;21.70;67.10;;;;;;4145663;28;20382;-85
2023/07/29 09:36:03;;;;;;;;;;;21.70;66.70;;;;;;4146664;28;19933;-86
2023/07/29 09:38:29;;;;;;;;;;;21.80;66.80;;;;;;4142734;28;20052;-87
2023/07/29 09:40:48;;;;;;;;;;;21.80;66.70;;;;;;4143173;28;20342;-86
2023/07/29 09:43:09;;;;;;;;;;;21.90;67.00;;;;;;4142680;28;20288;-85
2023/07/29 09:45:28;;;;;;;;;;;22.00;66.50;;;;;;4142706;28;20467;-85
2023/07/29 09:47:47;;;;;;;;;;;22.10;67.00;;;;;;4144977;28;20546;-87
2023/07/29 09:50:09;;;;;;;;;;;22.10;65.30;;;;;;4141784;28;19964;-84
2023/07/29 09:52:28;;;;;;;;;;;22.10;65.60;;;;;;4145117;28;19956;-86
2023/07/29 09:54:50;;;;;;;;;;;22.30;66.00;;;;;;4144905;28;19936;-86
2023/07/29 09:57:10;;;;;;;;;;;22.30;66.00;;;;;;4137916;28;19919;-86
2023/07/29 09:59:33;;;;;;;;;;;22.40;65.40;;;;;;4146375;28;19940;-87
2023/07/29 10:01:52;;;;;;;;;;;22.50;65.20;;;;;;4142996;28;20442;-86
2023/07/29 10:04:13;;;;;;;;;;;22.60;63.90;;;;;;4142027;28;20004;-85
2023/07/29 10:06:36;;;;;;;;;;;22.60;63.00;;;;;;4144305;28;19920;-86
2023/07/29 10:08:56;;;;;;;;;;;22.70;63.40;;;;;;4143713;28;20001;-86
2023/07/29 10:11:20;;;;;;;;;;;22.80;64.10;;;;;;4145841;28;20333;-86
2023/07/29 10:13:39;;;;;;;;;;;22.90;63.10;;;;;;4144541;28;19967;-85
2023/07/29 10:15:58;;;;;;;;;;;22.90;62.20;;;;;;4142913;28;20295;-83
2023/07/29 10:18:18;;;;;;;;;;;22.90;62.80;;;;;;4142145;28;19976;-84
2023/07/29 10:20:38;;;;;;;;;;;22.90;62.40;;;;;;4144886;28;20049;-86
2023/07/29 10:23:02;;;;;;;;;;;23.00;61.90;;;;;;4142835;28;19959;-85
2023/07/29 10:25:22;;;;;;;;;;;23.00;61.50;;;;;;4143459;28;20036;-86
2023/07/29 10:27:52;;;;;;;;;;;23.00;61.70;;;;;;4145903;28;20007;-85
2023/07/29 10:30:12;;;;;;;;;;;23.00;62.00;;;;;;4144542;28;20427;-86
2023/07/29 10:32:32;;;;;;;;;;;23.00;61.90;;;;;;4143499;28;20013;-84
2023/07/29 10:34:51;;;;;;;;;;;23.00;60.70;;;;;;4145395;28;19924;-85
2023/07/29 10:37:10;;;;;;;;;;;23.00;60.60;;;;;;4145724;28;19947;-85
2023/07/29 10:39:42;;;;;;;;;;;23.00;60.50;;;;;;4146176;28;19974;-85
2023/07/29 10:42:04;;;;;;;;;;;22.90;60.60;;;;;;4154090;28;19923;-86
2023/07/29 10:44:46;;;;;;;;;;;22.80;62.00;;;;;;4166701;28;19909;-87
2023/07/29 10:47:12;;;;;;;;;;;22.80;61.80;;;;;;4165801;28;19920;-86
2023/07/29 10:49:35;;;;;;;;;;;22.70;61.90;;;;;;4165639;28;19923;-84
2023/07/29 10:51:54;;;;;;;;;;;22.70;62.20;;;;;;4167403;28;19912;-86
2023/07/29 10:54:14;;;;;;;;;;;22.60;62.60;;;;;;4165740;28;19939;-87
2023/07/29 10:56:34;;;;;;;;;;;22.60;62.80;;;;;;4147307;28;20441;-87
2023/07/29 10:58:55;;;;;;;;;;;22.50;62.10;;;;;;4151687;28;19920;-85
2023/07/29 11:01:25;;;;;;;;;;;22.50;62.00;;;;;;4153544;28;19936;-85
2023/07/29 11:04:00;;;;;;;;;;;22.40;62.00;;;;;;4149787;28;19920;-86
2023/07/29 11:06:20;;;;;;;;;;;22.40;62.40;;;;;;4147552;28;19921;-85
2023/07/29 11:08:39;;;;;;;;;;;22.30;63.40;;;;;;4150325;28;19963;-86
2023/07/29 11:11:04;;;;;;;;;;;22.30;62.70;;;;;;4148175;28;19960;-85
2023/07/29 11:13:23;;;;;;;;;;;22.20;62.90;;;;;;4160861;28;20448;-86
2023/07/29 11:15:42;;;;;;;;;;;22.20;63.20;;;;;;4151189;28;19967;-86
2023/07/29 11:18:02;;;;;;;;;;;22.20;63.40;;;;;;4150137;28;19919;-86
2023/07/29 11:20:23;;;;;;;;;;;22.20;63.70;;;;;;4146767;28;20433;-85
2023/07/29 11:22:42;;;;;;;;;;;22.20;63.90;;;;;;4146935;28;20033;-86
2023/07/29 11:25:02;;;;;;;;;;;22.20;63.90;;;;;;4146084;28;20322;-86
2023/07/29 11:27:21;;;;;;;;;;;22.20;63.90;;;;;;4145198;28;19916;-85
2023/07/29 11:29:40;;;;;;;;;;;22.20;63.80;;;;;;4143185;28;19924;-85
2023/07/29 11:31:59;;;;;;;;;;;22.20;64.30;;;;;;4147861;28;20373;-86
2023/07/29 11:34:30;;;;;;;;;;;22.30;63.70;;;;;;4147399;28;20064;-85
2023/07/29 11:36:49;;;;;;;;;;;22.30;64.20;;;;;;4146849;28;20442;-86
2023/07/29 11:39:11;;;;;;;;;;;22.30;62.20;;;;;;4146427;28;20009;-85
2023/07/29 11:41:33;;;;;;;;;;;22.30;63.00;;;;;;4148179;28;19924;-84
2023/07/29 11:43:52;;;;;;;;;;;22.40;64.30;;;;;;4162084;28;19925;-85
2023/07/29 11:46:12;;;;;;;;;;;22.50;64.20;;;;;;4158444;28;19924;-86
2023/07/29 11:48:34;;;;;;;;;;;22.60;64.00;;;;;;4149136;28;19929;-86
2023/07/29 11:50:55;;;;;;;;;;;22.70;64.00;;;;;;4145910;28;20003;-85
2023/07/29 11:53:14;;;;;;;;;;;22.80;63.60;;;;;;4148600;28;19924;-86
2023/07/29 11:55:33;;;;;;;;;;;22.90;62.80;;;;;;4147674;28;19920;-86
2023/07/29 11:57:53;;;;;;;;;;;23.00;62.40;;;;;;4149992;28;20418;-86
2023/07/29 12:00:16;;;;;;;;;;;23.00;62.00;;;;;;4141923;28;20267;-86
2023/07/29 12:02:36;;;;;;;;;;;23.10;61.30;;;;;;4148988;28;19968;-86
2023/07/29 12:04:58;;;;;;;;;;;23.10;61.90;;;;;;4147623;28;19932;-85
2023/07/29 12:07:17;;;;;;;;;;;23.20;60.90;;;;;;4148028;28;19975;-87
2023/07/29 12:09:40;;;;;;;;;;;23.20;60.60;;;;;;4146339;28;19941;-86
2023/07/29 12:11:59;;;;;;;;;;;23.30;59.90;;;;;;4147341;28;20343;-85
2023/07/29 12:14:18;;;;;;;;;;;23.30;60.10;;;;;;4148737;28;19923;-86
2023/07/29 12:16:42;;;;;;;;;;;23.30;60.60;;;;;;4148702;28;19919;-85
2023/07/29 12:19:01;;;;;;;;;;;23.40;59.90;;;;;;4151582;28;19924;-85
2023/07/29 12:21:21;;;;;;;;;;;23.40;59.90;;;;;;4151130;28;20001;-86
2023/07/29 12:23:40;;;;;;;;;;;23.40;59.70;;;;;;4143462;28;19971;-86
2023/07/29 12:25:40;;;;;;;;;;;23.50;59.60;;;;;;4133389;28;19918;-85
2023/07/29 12:27:46;;;;;;;;;;;23.50;59.50;;;;;;4151980;28;20478;-86
2023/07/29 12:29:48;;;;;;;;;;;23.50;59.60;;;;;;4151464;28;20275;-86
2023/07/29 12:32:04;;;;;;;;;;;23.50;60.80;;;;;;4154114;28;19992;-86
2023/07/29 12:34:08;;;;;;;;;;;23.60;60.20;;;;;;4146343;28;19917;-86
2023/07/29 12:36:12;;;;;;;;;;;23.50;60.10;;;;;;4145680;28;20445;-86
2023/07/29 12:38:31;;;;;;;;;;;23.50;59.50;;;;;;4145387;28;20236;-85
2023/07/29 12:40:52;;;;;;;;;;;23.50;59.40;;;;;;4148233;28;19918;-86
2023/07/29 12:42:56;;;;;;;;;;;23.50;59.30;;;;;;4147866;28;19991;-85
2023/07/29 12:45:17;;;;;;;;;;;23.40;59.10;;;;;;4144840;28;19909;-85
2023/07/29 12:47:38;;;;;;;;;;;23.40;58.90;;;;;;4149639;28;20000;-85
2023/07/29 12:50:01;;;;;;;;;;;23.40;59.20;;;;;;4150041;28;20011;-85
2023/07/29 12:52:21;;;;;;;;;;;23.30;59.20;;;;;;4147322;28;19921;-86
2023/07/29 12:54:25;;;;;;;;;;;23.30;59.10;;;;;;4129274;28;20004;-86
2023/07/29 12:56:49;;;;;;;;;;;23.30;59.00;;;;;;4159286;28;19995;-86
2023/07/29 12:59:09;;;;;;;;;;;23.30;58.90;;;;;;4144871;28;19997;-86
2023/07/29 13:01:32;;;;;;;;;;;23.20;58.80;;;;;;4140282;28;19920;-86
2023/07/29 13:03:53;;;;;;;;;;;23.20;59.00;;;;;;4143906;28;19917;-86
2023/07/29 13:06:19;;;;;;;;;;;23.20;58.90;;;;;;4156154;28;19913;-86
2023/07/29 13:08:44;;;;;;;;;;;23.10;58.80;;;;;;4143686;28;20004;-86
2023/07/29 13:11:05;;;;;;;;;;;23.10;59.00;;;;;;4144825;28;20506;-86
2023/07/29 13:13:25;;;;;;;;;;;23.10;59.20;;;;;;4142625;28;19913;-85